sensor_id;sensor_type;location;lat;lon;timestamp;temperature;humidity
33508;DHT22;25568;37.410;-122.096;2022-11-20T00:01:42;17.40;72.70
33508;DHT22;25568;37.410;-122.096;2022-11-20T00:04:11;17.40;72.60
33508;DHT22;25568;37.410;-122.096;2022-11-20T00:06:42;17.50;72.70
33508;DHT22;25568;37.410;-122.096;2022-11-20T00:09:11;17.50;72.60
33508;DHT22;25568;37.410;-122.096;2022-11-20T00:11:43;17.50;72.60
33508;DHT22;25568;37.410;-122.096;2022-11-20T00:14:12;17.50;72.50
33508;DHT22;25568;37.410;-122.096;2022-11-20T00:16:41;17.50;71.90
33508;DHT22;25568;37.410;-122.096;2022-11-20T00:19:10;17.60;71.50
33508;DHT22;25568;37.410;-122.096;2022-11-20T00:21:41;17.60;71.00
33508;DHT22;25568;37.410;-122.096;2022-11-20T00:24:12;17.60;70.70
33508;DHT22;25568;37.410;-122.096;2022-11-20T00:26:41;17.60;70.40
33508;DHT22;25568;37.410;-122.096;2022-11-20T00:29:10;17.60;70.10
33508;DHT22;25568;37.410;-122.096;2022-11-20T00:34:14;17.70;69.70
33508;DHT22;25568;37.410;-122.096;2022-11-20T00:36:45;17.70;69.40
33508;DHT22;25568;37.410;-122.096;2022-11-20T00:39:14;17.70;69.20
33508;DHT22;25568;37.410;-122.096;2022-11-20T00:41:43;17.70;69.10
33508;DHT22;25568;37.410;-122.096;2022-11-20T00:44:11;17.70;69.40
33508;DHT22;25568;37.410;-122.096;2022-11-20T00:46:40;17.70;69.60
33508;DHT22;25568;37.410;-122.096;2022-11-20T00:49:09;17.80;70.00
33508;DHT22;25568;37.410;-122.096;2022-11-20T00:51:38;17.80;70.20
33508;DHT22;25568;37.410;-122.096;2022-11-20T00:54:08;17.80;70.30
33508;DHT22;25568;37.410;-122.096;2022-11-20T00:56:37;17.80;70.40
33508;DHT22;25568;37.410;-122.096;2022-11-20T00:59:08;17.80;70.40
33508;DHT22;25568;37.410;-122.096;2022-11-20T01:01:37;17.80;70.50
33508;DHT22;25568;37.410;-122.096;2022-11-20T01:04:06;17.80;70.60
33508;DHT22;25568;37.410;-122.096;2022-11-20T01:06:37;17.80;70.60
33508;DHT22;25568;37.410;-122.096;2022-11-20T01:09:10;17.80;70.90
33508;DHT22;25568;37.410;-122.096;2022-11-20T01:11:41;17.90;70.90
33508;DHT22;25568;37.410;-122.096;2022-11-20T01:14:12;17.90;71.00
33508;DHT22;25568;37.410;-122.096;2022-11-20T01:16:43;17.90;71.00
33508;DHT22;25568;37.410;-122.096;2022-11-20T01:19:13;17.90;71.00
33508;DHT22;25568;37.410;-122.096;2022-11-20T01:21:43;17.90;71.10
33508;DHT22;25568;37.410;-122.096;2022-11-20T01:24:17;17.90;71.10
33508;DHT22;25568;37.410;-122.096;2022-11-20T01:26:50;17.90;71.10
33508;DHT22;25568;37.410;-122.096;2022-11-20T01:29:21;17.90;71.20
33508;DHT22;25568;37.410;-122.096;2022-11-20T01:31:50;18.00;71.20
33508;DHT22;25568;37.410;-122.096;2022-11-20T01:34:20;18.00;71.20
33508;DHT22;25568;37.410;-122.096;2022-11-20T01:36:50;18.00;71.30
33508;DHT22;25568;37.410;-122.096;2022-11-20T01:39:22;17.90;71.20
33508;DHT22;25568;37.410;-122.096;2022-11-20T01:41:53;18.00;71.30
33508;DHT22;25568;37.410;-122.096;2022-11-20T01:44:53;18.00;71.30
33508;DHT22;25568;37.410;-122.096;2022-11-20T01:47:27;18.00;71.30
33508;DHT22;25568;37.410;-122.096;2022-11-20T01:50:01;18.00;71.30
33508;DHT22;25568;37.410;-122.096;2022-11-20T01:52:34;18.00;71.30
33508;DHT22;25568;37.410;-122.096;2022-11-20T01:55:09;18.00;71.30
33508;DHT22;25568;37.410;-122.096;2022-11-20T01:57:40;18.00;71.30
33508;DHT22;25568;37.410;-122.096;2022-11-20T02:00:12;18.00;71.30
33508;DHT22;25568;37.410;-122.096;2022-11-20T02:02:44;18.00;71.30
33508;DHT22;25568;37.410;-122.096;2022-11-20T02:05:19;18.00;71.30
33508;DHT22;25568;37.410;-122.096;2022-11-20T02:07:51;18.00;71.20
33508;DHT22;25568;37.410;-122.096;2022-11-20T02:10:23;18.00;71.20
33508;DHT22;25568;37.410;-122.096;2022-11-20T02:12:52;18.00;71.20
33508;DHT22;25568;37.410;-122.096;2022-11-20T02:15:38;18.00;71.20
33508;DHT22;25568;37.410;-122.096;2022-11-20T02:18:07;18.00;71.20
33508;DHT22;25568;37.410;-122.096;2022-11-20T02:20:37;18.00;71.20
33508;DHT22;25568;37.410;-122.096;2022-11-20T02:23:10;18.00;71.40
33508;DHT22;25568;37.410;-122.096;2022-11-20T02:25:43;18.00;71.60
33508;DHT22;25568;37.410;-122.096;2022-11-20T02:28:12;18.00;71.70
33508;DHT22;25568;37.410;-122.096;2022-11-20T02:30:40;18.00;71.90
33508;DHT22;25568;37.410;-122.096;2022-11-20T02:33:09;18.00;72.00
33508;DHT22;25568;37.410;-122.096;2022-11-20T02:35:43;18.00;72.00
33508;DHT22;25568;37.410;-122.096;2022-11-20T02:38:13;18.00;72.10
33508;DHT22;25568;37.410;-122.096;2022-11-20T02:40:44;18.00;72.20
33508;DHT22;25568;37.410;-122.096;2022-11-20T02:43:12;18.00;72.20
33508;DHT22;25568;37.410;-122.096;2022-11-20T02:45:41;18.00;72.10
33508;DHT22;25568;37.410;-122.096;2022-11-20T02:48:10;18.00;72.00
33508;DHT22;25568;37.410;-122.096;2022-11-20T02:50:40;18.00;72.00
33508;DHT22;25568;37.410;-122.096;2022-11-20T02:53:09;18.00;72.10
33508;DHT22;25568;37.410;-122.096;2022-11-20T02:55:38;17.90;71.90
33508;DHT22;25568;37.410;-122.096;2022-11-20T02:58:08;17.90;71.90
33508;DHT22;25568;37.410;-122.096;2022-11-20T03:00:37;18.00;72.00
33508;DHT22;25568;37.410;-122.096;2022-11-20T03:03:06;18.00;72.00
33508;DHT22;25568;37.410;-122.096;2022-11-20T03:05:35;17.90;72.00
33508;DHT22;25568;37.410;-122.096;2022-11-20T03:08:04;17.90;72.00
33508;DHT22;25568;37.410;-122.096;2022-11-20T03:10:36;17.90;72.20
33508;DHT22;25568;37.410;-122.096;2022-11-20T03:13:04;18.00;72.20
33508;DHT22;25568;37.410;-122.096;2022-11-20T03:15:36;17.90;72.00
33508;DHT22;25568;37.410;-122.096;2022-11-20T03:18:05;17.90;72.10
33508;DHT22;25568;37.410;-122.096;2022-11-20T03:20:48;17.90;72.10
33508;DHT22;25568;37.410;-122.096;2022-11-20T03:23:17;17.90;72.20
33508;DHT22;25568;37.410;-122.096;2022-11-20T03:25:46;17.90;72.20
33508;DHT22;25568;37.410;-122.096;2022-11-20T03:28:15;17.90;72.20
33508;DHT22;25568;37.410;-122.096;2022-11-20T03:30:45;17.90;72.20
33508;DHT22;25568;37.410;-122.096;2022-11-20T03:33:14;17.80;72.10
33508;DHT22;25568;37.410;-122.096;2022-11-20T03:35:43;17.90;72.00
33508;DHT22;25568;37.410;-122.096;2022-11-20T03:38:12;17.80;72.00
33508;DHT22;25568;37.410;-122.096;2022-11-20T03:40:41;17.90;72.10
33508;DHT22;25568;37.410;-122.096;2022-11-20T03:43:10;17.80;72.10
33508;DHT22;25568;37.410;-122.096;2022-11-20T03:45:39;17.80;72.00
33508;DHT22;25568;37.410;-122.096;2022-11-20T03:48:09;17.80;71.80
33508;DHT22;25568;37.410;-122.096;2022-11-20T03:50:38;17.80;71.70
33508;DHT22;25568;37.410;-122.096;2022-11-20T03:53:06;17.80;71.70
33508;DHT22;25568;37.410;-122.096;2022-11-20T03:55:35;17.80;71.60
33508;DHT22;25568;37.410;-122.096;2022-11-20T03:58:04;17.70;71.50
33508;DHT22;25568;37.410;-122.096;2022-11-20T04:00:33;17.70;71.30
33508;DHT22;25568;37.410;-122.096;2022-11-20T04:03:02;17.70;71.20
33508;DHT22;25568;37.410;-122.096;2022-11-20T04:05:33;17.70;71.10
33508;DHT22;25568;37.410;-122.096;2022-11-20T04:08:02;17.70;71.00
33508;DHT22;25568;37.410;-122.096;2022-11-20T04:10:31;17.70;70.90
33508;DHT22;25568;37.410;-122.096;2022-11-20T04:12:59;17.60;70.70
33508;DHT22;25568;37.410;-122.096;2022-11-20T04:15:28;17.60;70.70
33508;DHT22;25568;37.410;-122.096;2022-11-20T04:17:57;17.60;70.60
33508;DHT22;25568;37.410;-122.096;2022-11-20T04:20:26;17.50;70.40
33508;DHT22;25568;37.410;-122.096;2022-11-20T04:22:56;17.50;70.40
33508;DHT22;25568;37.410;-122.096;2022-11-20T04:25:25;17.50;70.30
33508;DHT22;25568;37.410;-122.096;2022-11-20T04:27:54;17.50;70.20
33508;DHT22;25568;37.410;-122.096;2022-11-20T04:30:23;17.50;70.10
33508;DHT22;25568;37.410;-122.096;2022-11-20T04:32:52;17.50;70.00
33508;DHT22;25568;37.410;-122.096;2022-11-20T04:35:21;17.50;70.00
33508;DHT22;25568;37.410;-122.096;2022-11-20T04:37:52;17.40;69.90
33508;DHT22;25568;37.410;-122.096;2022-11-20T04:40:22;17.40;69.90
33508;DHT22;25568;37.410;-122.096;2022-11-20T04:42:51;17.40;69.90
33508;DHT22;25568;37.410;-122.096;2022-11-20T04:45:20;17.40;69.90
33508;DHT22;25568;37.410;-122.096;2022-11-20T04:47:49;17.40;69.90
33508;DHT22;25568;37.410;-122.096;2022-11-20T04:50:18;17.40;69.80
33508;DHT22;25568;37.410;-122.096;2022-11-20T04:52:47;17.30;69.70
33508;DHT22;25568;37.410;-122.096;2022-11-20T04:55:16;17.40;69.80
33508;DHT22;25568;37.410;-122.096;2022-11-20T04:57:50;17.30;69.70
33508;DHT22;25568;37.410;-122.096;2022-11-20T05:00:19;17.30;69.70
33508;DHT22;25568;37.410;-122.096;2022-11-20T05:02:48;17.30;69.90
33508;DHT22;25568;37.410;-122.096;2022-11-20T05:05:17;17.30;69.90
33508;DHT22;25568;37.410;-122.096;2022-11-20T05:07:46;17.30;70.00
33508;DHT22;25568;37.410;-122.096;2022-11-20T05:10:15;17.30;70.00
33508;DHT22;25568;37.410;-122.096;2022-11-20T05:12:46;17.20;69.90
33508;DHT22;25568;37.410;-122.096;2022-11-20T05:15:14;17.20;69.80
33508;DHT22;25568;37.410;-122.096;2022-11-20T05:17:47;17.20;69.90
33508;DHT22;25568;37.410;-122.096;2022-11-20T05:20:17;17.20;69.90
33508;DHT22;25568;37.410;-122.096;2022-11-20T05:22:47;17.20;69.90
33508;DHT22;25568;37.410;-122.096;2022-11-20T05:25:16;17.20;69.80
33508;DHT22;25568;37.410;-122.096;2022-11-20T05:27:47;17.20;69.90
33508;DHT22;25568;37.410;-122.096;2022-11-20T05:30:15;17.10;69.70
33508;DHT22;25568;37.410;-122.096;2022-11-20T05:32:44;17.10;69.70
33508;DHT22;25568;37.410;-122.096;2022-11-20T05:35:13;17.10;69.80
33508;DHT22;25568;37.410;-122.096;2022-11-20T05:37:42;17.10;69.70
33508;DHT22;25568;37.410;-122.096;2022-11-20T05:40:12;17.10;69.70
33508;DHT22;25568;37.410;-122.096;2022-11-20T05:42:40;17.00;69.70
33508;DHT22;25568;37.410;-122.096;2022-11-20T05:45:12;17.00;69.60
33508;DHT22;25568;37.410;-122.096;2022-11-20T05:47:40;17.00;69.60
33508;DHT22;25568;37.410;-122.096;2022-11-20T05:50:09;17.00;69.60
33508;DHT22;25568;37.410;-122.096;2022-11-20T05:52:38;17.00;69.60
33508;DHT22;25568;37.410;-122.096;2022-11-20T05:55:08;17.00;69.50
33508;DHT22;25568;37.410;-122.096;2022-11-20T05:57:37;17.00;70.40
33508;DHT22;25568;37.410;-122.096;2022-11-20T06:00:06;17.00;72.30
33508;DHT22;25568;37.410;-122.096;2022-11-20T06:02:37;17.10;73.10
33508;DHT22;25568;37.410;-122.096;2022-11-20T06:05:09;17.10;73.10
33508;DHT22;25568;37.410;-122.096;2022-11-20T06:07:38;17.10;73.20
33508;DHT22;25568;37.410;-122.096;2022-11-20T06:10:07;17.10;73.00
33508;DHT22;25568;37.410;-122.096;2022-11-20T06:12:36;17.20;72.70
33508;DHT22;25568;37.410;-122.096;2022-11-20T06:15:05;17.20;72.30
33508;DHT22;25568;37.410;-122.096;2022-11-20T06:17:36;17.10;72.20
33508;DHT22;25568;37.410;-122.096;2022-11-20T06:20:06;17.10;71.80
33508;DHT22;25568;37.410;-122.096;2022-11-20T06:22:34;17.10;72.40
33508;DHT22;25568;37.410;-122.096;2022-11-20T06:25:04;17.10;71.20
33508;DHT22;25568;37.410;-122.096;2022-11-20T06:27:32;17.10;71.00
33508;DHT22;25568;37.410;-122.096;2022-11-20T06:30:01;17.10;71.10
33508;DHT22;25568;37.410;-122.096;2022-11-20T06:32:30;17.10;70.90
33508;DHT22;25568;37.410;-122.096;2022-11-20T06:35:00;17.10;70.70
33508;DHT22;25568;37.410;-122.096;2022-11-20T06:37:29;17.10;70.50
33508;DHT22;25568;37.410;-122.096;2022-11-20T06:39:58;17.00;70.60
33508;DHT22;25568;37.410;-122.096;2022-11-20T06:42:27;17.10;70.70
33508;DHT22;25568;37.410;-122.096;2022-11-20T06:44:55;17.10;70.80
33508;DHT22;25568;37.410;-122.096;2022-11-20T06:47:24;17.10;70.90
33508;DHT22;25568;37.410;-122.096;2022-11-20T06:49:53;17.10;71.00
33508;DHT22;25568;37.410;-122.096;2022-11-20T06:52:23;17.10;71.00
33508;DHT22;25568;37.410;-122.096;2022-11-20T06:54:52;17.10;71.20
33508;DHT22;25568;37.410;-122.096;2022-11-20T06:57:20;17.10;71.20
33508;DHT22;25568;37.410;-122.096;2022-11-20T06:59:49;17.10;71.20
33508;DHT22;25568;37.410;-122.096;2022-11-20T07:02:18;17.10;71.20
33508;DHT22;25568;37.410;-122.096;2022-11-20T07:04:47;17.10;71.20
33508;DHT22;25568;37.410;-122.096;2022-11-20T07:07:19;17.10;71.20
33508;DHT22;25568;37.410;-122.096;2022-11-20T07:09:49;17.10;71.30
33508;DHT22;25568;37.410;-122.096;2022-11-20T07:12:19;17.10;71.30
33508;DHT22;25568;37.410;-122.096;2022-11-20T07:14:50;17.10;71.30
33508;DHT22;25568;37.410;-122.096;2022-11-20T07:17:19;17.20;71.30
33508;DHT22;25568;37.410;-122.096;2022-11-20T07:19:48;17.20;71.40
33508;DHT22;25568;37.410;-122.096;2022-11-20T07:22:17;17.20;72.30
33508;DHT22;25568;37.410;-122.096;2022-11-20T07:24:49;17.20;71.50
33508;DHT22;25568;37.410;-122.096;2022-11-20T07:27:18;17.20;71.50
33508;DHT22;25568;37.410;-122.096;2022-11-20T07:29:47;17.20;71.50
33508;DHT22;25568;37.410;-122.096;2022-11-20T07:32:16;17.20;71.50
33508;DHT22;25568;37.410;-122.096;2022-11-20T07:34:49;17.20;71.50
33508;DHT22;25568;37.410;-122.096;2022-11-20T07:37:18;17.20;71.50
33508;DHT22;25568;37.410;-122.096;2022-11-20T07:39:48;17.20;71.50
33508;DHT22;25568;37.410;-122.096;2022-11-20T07:42:17;17.20;71.60
33508;DHT22;25568;37.410;-122.096;2022-11-20T07:44:46;17.10;71.70
33508;DHT22;25568;37.410;-122.096;2022-11-20T07:47:15;17.10;71.80
33508;DHT22;25568;37.410;-122.096;2022-11-20T07:49:43;17.00;71.70
33508;DHT22;25568;37.410;-122.096;2022-11-20T07:52:12;17.00;71.70
33508;DHT22;25568;37.410;-122.096;2022-11-20T07:54:41;17.00;71.70
33508;DHT22;25568;37.410;-122.096;2022-11-20T07:57:12;17.00;71.70
33508;DHT22;25568;37.410;-122.096;2022-11-20T07:59:43;16.90;71.80
33508;DHT22;25568;37.410;-122.096;2022-11-20T08:02:13;16.90;71.80
33508;DHT22;25568;37.410;-122.096;2022-11-20T08:04:42;16.90;72.00
33508;DHT22;25568;37.410;-122.096;2022-11-20T08:07:11;16.90;71.80
33508;DHT22;25568;37.410;-122.096;2022-11-20T08:09:39;16.90;71.80
33508;DHT22;25568;37.410;-122.096;2022-11-20T08:12:09;16.80;71.80
33508;DHT22;25568;37.410;-122.096;2022-11-20T08:15:04;16.80;71.80
33508;DHT22;25568;37.410;-122.096;2022-11-20T08:17:33;16.70;71.80
33508;DHT22;25568;37.410;-122.096;2022-11-20T08:20:02;16.70;71.90
33508;DHT22;25568;37.410;-122.096;2022-11-20T08:22:35;16.70;71.80
33508;DHT22;25568;37.410;-122.096;2022-11-20T08:25:04;16.70;71.80
33508;DHT22;25568;37.410;-122.096;2022-11-20T08:27:33;16.70;71.80
33508;DHT22;25568;37.410;-122.096;2022-11-20T08:30:03;16.60;71.70
33508;DHT22;25568;37.410;-122.096;2022-11-20T08:32:32;16.60;71.70
33508;DHT22;25568;37.410;-122.096;2022-11-20T08:35:04;16.60;71.70
33508;DHT22;25568;37.410;-122.096;2022-11-20T08:37:33;16.50;71.70
33508;DHT22;25568;37.410;-122.096;2022-11-20T08:40:02;16.50;71.70
33508;DHT22;25568;37.410;-122.096;2022-11-20T08:42:33;16.50;71.70
33508;DHT22;25568;37.410;-122.096;2022-11-20T08:45:04;16.50;71.70
33508;DHT22;25568;37.410;-122.096;2022-11-20T08:47:33;16.50;71.70
33508;DHT22;25568;37.410;-122.096;2022-11-20T08:50:03;16.50;71.70
33508;DHT22;25568;37.410;-122.096;2022-11-20T08:52:31;16.40;71.70
33508;DHT22;25568;37.410;-122.096;2022-11-20T08:55:00;16.40;71.70
33508;DHT22;25568;37.410;-122.096;2022-11-20T08:57:31;16.40;71.70
33508;DHT22;25568;37.410;-122.096;2022-11-20T09:00:06;16.40;71.70
33508;DHT22;25568;37.410;-122.096;2022-11-20T09:02:35;16.30;71.70
33508;DHT22;25568;37.410;-122.096;2022-11-20T09:05:05;16.30;71.70
33508;DHT22;25568;37.410;-122.096;2022-11-20T09:07:34;16.30;71.80
33508;DHT22;25568;37.410;-122.096;2022-11-20T09:10:02;16.30;72.20
33508;DHT22;25568;37.410;-122.096;2022-11-20T09:12:31;16.30;72.60
33508;DHT22;25568;37.410;-122.096;2022-11-20T09:15:00;16.30;72.70
33508;DHT22;25568;37.410;-122.096;2022-11-20T09:17:30;16.30;72.70
33508;DHT22;25568;37.410;-122.096;2022-11-20T09:19:59;16.20;72.70
33508;DHT22;25568;37.410;-122.096;2022-11-20T09:22:28;16.20;72.80
33508;DHT22;25568;37.410;-122.096;2022-11-20T09:24:56;16.20;72.80
33508;DHT22;25568;37.410;-122.096;2022-11-20T09:27:25;16.20;73.00
33508;DHT22;25568;37.410;-122.096;2022-11-20T09:29:54;16.20;73.00
33508;DHT22;25568;37.410;-122.096;2022-11-20T09:32:22;16.20;73.10
33508;DHT22;25568;37.410;-122.096;2022-11-20T09:34:53;16.10;73.10
33508;DHT22;25568;37.410;-122.096;2022-11-20T09:37:21;16.10;73.10
33508;DHT22;25568;37.410;-122.096;2022-11-20T09:39:50;16.10;73.20
33508;DHT22;25568;37.410;-122.096;2022-11-20T09:42:32;16.10;73.20
33508;DHT22;25568;37.410;-122.096;2022-11-20T09:45:16;16.10;73.40
33508;DHT22;25568;37.410;-122.096;2022-11-20T09:48:03;16.10;73.60
33508;DHT22;25568;37.410;-122.096;2022-11-20T09:50:41;16.10;73.70
33508;DHT22;25568;37.410;-122.096;2022-11-20T09:53:19;16.10;73.70
33508;DHT22;25568;37.410;-122.096;2022-11-20T09:55:49;16.00;73.70
33508;DHT22;25568;37.410;-122.096;2022-11-20T09:58:27;16.00;74.60
33508;DHT22;25568;37.410;-122.096;2022-11-20T10:01:05;16.00;73.90
33508;DHT22;25568;37.410;-122.096;2022-11-20T10:03:50;16.00;73.90
33508;DHT22;25568;37.410;-122.096;2022-11-20T10:06:30;16.00;74.00
33508;DHT22;25568;37.410;-122.096;2022-11-20T10:09:06;16.00;74.00
33508;DHT22;25568;37.410;-122.096;2022-11-20T10:11:47;15.90;74.00
33508;DHT22;25568;37.410;-122.096;2022-11-20T10:14:26;15.90;74.00
33508;DHT22;25568;37.410;-122.096;2022-11-20T10:17:03;15.90;74.00
33508;DHT22;25568;37.410;-122.096;2022-11-20T10:19:50;15.90;74.10
33508;DHT22;25568;37.410;-122.096;2022-11-20T10:22:35;15.90;74.20
33508;DHT22;25568;37.410;-122.096;2022-11-20T10:25:14;15.90;74.50
33508;DHT22;25568;37.410;-122.096;2022-11-20T10:28:05;15.80;74.40
33508;DHT22;25568;37.410;-122.096;2022-11-20T10:30:41;15.80;74.40
33508;DHT22;25568;37.410;-122.096;2022-11-20T10:33:17;15.80;74.40
33508;DHT22;25568;37.410;-122.096;2022-11-20T10:35:54;15.80;74.50
33508;DHT22;25568;37.410;-122.096;2022-11-20T10:38:38;15.80;74.70
33508;DHT22;25568;37.410;-122.096;2022-11-20T10:41:14;15.80;75.00
33508;DHT22;25568;37.410;-122.096;2022-11-20T10:44:01;15.80;75.00
33508;DHT22;25568;37.410;-122.096;2022-11-20T10:46:38;15.80;75.00
33508;DHT22;25568;37.410;-122.096;2022-11-20T10:49:14;15.80;75.00
33508;DHT22;25568;37.410;-122.096;2022-11-20T10:51:55;15.70;75.00
33508;DHT22;25568;37.410;-122.096;2022-11-20T10:54:39;15.70;75.40
33508;DHT22;25568;37.410;-122.096;2022-11-20T10:57:17;15.70;75.40
33508;DHT22;25568;37.410;-122.096;2022-11-20T10:59:59;15.70;75.50
33508;DHT22;25568;37.410;-122.096;2022-11-20T11:02:40;15.70;75.60
33508;DHT22;25568;37.410;-122.096;2022-11-20T11:05:18;15.60;75.70
33508;DHT22;25568;37.410;-122.096;2022-11-20T11:07:50;15.70;75.90
33508;DHT22;25568;37.410;-122.096;2022-11-20T11:10:26;15.60;76.00
33508;DHT22;25568;37.410;-122.096;2022-11-20T11:12:57;15.60;76.20
33508;DHT22;25568;37.410;-122.096;2022-11-20T11:15:28;15.60;76.10
33508;DHT22;25568;37.410;-122.096;2022-11-20T11:17:57;15.60;76.10
33508;DHT22;25568;37.410;-122.096;2022-11-20T11:20:26;15.60;76.40
33508;DHT22;25568;37.410;-122.096;2022-11-20T11:22:56;15.50;76.50
33508;DHT22;25568;37.410;-122.096;2022-11-20T11:25:29;15.50;76.50
33508;DHT22;25568;37.410;-122.096;2022-11-20T11:28:03;15.60;76.60
33508;DHT22;25568;37.410;-122.096;2022-11-20T11:30:43;15.60;76.60
33508;DHT22;25568;37.410;-122.096;2022-11-20T11:33:18;15.50;76.50
33508;DHT22;25568;37.410;-122.096;2022-11-20T11:35:49;15.50;76.60
33508;DHT22;25568;37.410;-122.096;2022-11-20T11:38:27;15.50;76.70
33508;DHT22;25568;37.410;-122.096;2022-11-20T11:40:58;15.50;76.70
33508;DHT22;25568;37.410;-122.096;2022-11-20T11:43:29;15.50;76.80
33508;DHT22;25568;37.410;-122.096;2022-11-20T11:46:29;15.50;76.90
33508;DHT22;25568;37.410;-122.096;2022-11-20T11:48:59;15.50;77.00
33508;DHT22;25568;37.410;-122.096;2022-11-20T11:51:32;15.50;77.00
33508;DHT22;25568;37.410;-122.096;2022-11-20T11:54:05;15.50;77.10
33508;DHT22;25568;37.410;-122.096;2022-11-20T11:56:40;15.50;77.10
33508;DHT22;25568;37.410;-122.096;2022-11-20T11:59:14;15.50;77.40
33508;DHT22;25568;37.410;-122.096;2022-11-20T12:01:50;15.40;77.50
33508;DHT22;25568;37.410;-122.096;2022-11-20T12:04:26;15.50;77.60
33508;DHT22;25568;37.410;-122.096;2022-11-20T12:07:12;15.40;77.50
33508;DHT22;25568;37.410;-122.096;2022-11-20T12:09:46;15.40;77.60
33508;DHT22;25568;37.410;-122.096;2022-11-20T12:12:21;15.40;77.60
33508;DHT22;25568;37.410;-122.096;2022-11-20T12:14:55;15.40;77.60
33508;DHT22;25568;37.410;-122.096;2022-11-20T12:17:25;15.40;77.70
33508;DHT22;25568;37.410;-122.096;2022-11-20T12:19:53;15.40;77.70
33508;DHT22;25568;37.410;-122.096;2022-11-20T12:22:29;15.40;77.80
33508;DHT22;25568;37.410;-122.096;2022-11-20T12:25:03;15.40;78.00
33508;DHT22;25568;37.410;-122.096;2022-11-20T12:28:02;15.40;78.00
33508;DHT22;25568;37.410;-122.096;2022-11-20T12:30:39;15.30;78.00
33508;DHT22;25568;37.410;-122.096;2022-11-20T12:36:27;15.30;78.30
33508;DHT22;25568;37.410;-122.096;2022-11-20T12:39:07;15.30;78.30
33508;DHT22;25568;37.410;-122.096;2022-11-20T12:42:02;15.30;78.30
33508;DHT22;25568;37.410;-122.096;2022-11-20T12:45:14;15.30;78.30
33508;DHT22;25568;37.410;-122.096;2022-11-20T12:47:59;15.30;78.20
33508;DHT22;25568;37.410;-122.096;2022-11-20T12:50:40;15.30;78.20
33508;DHT22;25568;37.410;-122.096;2022-11-20T12:53:25;15.20;78.10
33508;DHT22;25568;37.410;-122.096;2022-11-20T12:56:03;15.20;78.10
33508;DHT22;25568;37.410;-122.096;2022-11-20T12:58:41;15.20;78.20
33508;DHT22;25568;37.410;-122.096;2022-11-20T13:01:24;15.20;78.20
33508;DHT22;25568;37.410;-122.096;2022-11-20T13:04:16;15.20;78.50
33508;DHT22;25568;37.410;-122.096;2022-11-20T13:06:47;15.20;78.60
33508;DHT22;25568;37.410;-122.096;2022-11-20T13:09:19;15.20;78.60
33508;DHT22;25568;37.410;-122.096;2022-11-20T13:11:54;15.20;78.50
33508;DHT22;25568;37.410;-122.096;2022-11-20T13:14:34;15.20;78.40
33508;DHT22;25568;37.410;-122.096;2022-11-20T13:17:13;15.20;78.40
33508;DHT22;25568;37.410;-122.096;2022-11-20T13:19:51;15.20;78.40
33508;DHT22;25568;37.410;-122.096;2022-11-20T13:22:28;15.20;78.40
33508;DHT22;25568;37.410;-122.096;2022-11-20T13:24:57;15.10;78.20
33508;DHT22;25568;37.410;-122.096;2022-11-20T13:27:26;15.10;78.20
33508;DHT22;25568;37.410;-122.096;2022-11-20T13:30:03;15.10;78.20
33508;DHT22;25568;37.410;-122.096;2022-11-20T13:32:56;15.10;78.10
33508;DHT22;25568;37.410;-122.096;2022-11-20T13:35:29;15.10;77.90
33508;DHT22;25568;37.410;-122.096;2022-11-20T13:38:07;15.10;78.00
33508;DHT22;25568;37.410;-122.096;2022-11-20T13:40:38;15.10;78.00
33508;DHT22;25568;37.410;-122.096;2022-11-20T13:43:22;15.10;77.90
33508;DHT22;25568;37.410;-122.096;2022-11-20T13:45:56;15.10;78.00
33508;DHT22;25568;37.410;-122.096;2022-11-20T13:48:30;15.10;78.40
33508;DHT22;25568;37.410;-122.096;2022-11-20T13:51:16;15.10;78.60
33508;DHT22;25568;37.410;-122.096;2022-11-20T13:57:02;15.10;78.50
33508;DHT22;25568;37.410;-122.096;2022-11-20T13:59:53;15.10;78.40
33508;DHT22;25568;37.410;-122.096;2022-11-20T14:02:29;15.00;78.40
33508;DHT22;25568;37.410;-122.096;2022-11-20T14:05:01;15.00;78.30
33508;DHT22;25568;37.410;-122.096;2022-11-20T14:07:35;15.00;78.30
33508;DHT22;25568;37.410;-122.096;2022-11-20T14:13:27;15.00;78.20
33508;DHT22;25568;37.410;-122.096;2022-11-20T14:15:57;15.00;78.20
33508;DHT22;25568;37.410;-122.096;2022-11-20T14:18:27;15.00;78.10
33508;DHT22;25568;37.410;-122.096;2022-11-20T14:21:00;14.90;78.10
33508;DHT22;25568;37.410;-122.096;2022-11-20T14:23:30;14.90;78.10
33508;DHT22;25568;37.410;-122.096;2022-11-20T14:25:59;14.90;78.00
33508;DHT22;25568;37.410;-122.096;2022-11-20T14:28:29;14.90;78.00
33508;DHT22;25568;37.410;-122.096;2022-11-20T14:30:58;14.90;78.00
33508;DHT22;25568;37.410;-122.096;2022-11-20T14:33:27;14.90;77.80
33508;DHT22;25568;37.410;-122.096;2022-11-20T14:35:59;14.90;77.70
33508;DHT22;25568;37.410;-122.096;2022-11-20T14:38:28;14.90;77.80
33508;DHT22;25568;37.410;-122.096;2022-11-20T14:41:06;14.90;77.80
33508;DHT22;25568;37.410;-122.096;2022-11-20T14:43:36;14.90;77.90
33508;DHT22;25568;37.410;-122.096;2022-11-20T14:46:08;14.90;77.80
33508;DHT22;25568;37.410;-122.096;2022-11-20T14:48:44;14.80;77.70
33508;DHT22;25568;37.410;-122.096;2022-11-20T14:51:28;14.80;78.10
33508;DHT22;25568;37.410;-122.096;2022-11-20T14:54:08;14.80;77.80
33508;DHT22;25568;37.410;-122.096;2022-11-20T14:56:38;14.80;77.70
33508;DHT22;25568;37.410;-122.096;2022-11-20T14:59:08;14.80;77.70
33508;DHT22;25568;37.410;-122.096;2022-11-20T15:01:37;14.80;77.80
33508;DHT22;25568;37.410;-122.096;2022-11-20T15:04:08;14.80;77.80
33508;DHT22;25568;37.410;-122.096;2022-11-20T15:06:50;14.80;77.80
33508;DHT22;25568;37.410;-122.096;2022-11-20T15:09:19;14.80;77.70
33508;DHT22;25568;37.410;-122.096;2022-11-20T15:11:59;14.80;77.90
33508;DHT22;25568;37.410;-122.096;2022-11-20T15:14:32;14.70;77.80
33508;DHT22;25568;37.410;-122.096;2022-11-20T15:17:01;14.70;77.70
33508;DHT22;25568;37.410;-122.096;2022-11-20T15:19:29;14.70;77.70
33508;DHT22;25568;37.410;-122.096;2022-11-20T15:22:00;14.70;77.50
33508;DHT22;25568;37.410;-122.096;2022-11-20T15:24:28;14.60;77.50
33508;DHT22;25568;37.410;-122.096;2022-11-20T15:26:57;14.70;77.40
33508;DHT22;25568;37.410;-122.096;2022-11-20T15:29:26;14.60;77.30
33508;DHT22;25568;37.410;-122.096;2022-11-20T15:31:56;14.60;77.30